Cedar Falls, IA

4:26 AM CDT on March 30, 2015 (GMT -0500)
Waterloo Municipal | | Change Station
CLOSE
Current Station
Airport
Location: Waterloo,
Elevation: 873 ft
Nearby Weather Stations

Elev 873 ft 42.55 °N, 92.40 °W | Updated 32 minutes ago

Clear
Clear
30 °F
Feels Like 30 °F
N
0
Wind Variable Wind from North

Today
High -- | Low -- °F
--% Chance of Precip.
Yesterday
High -- | Low -- °F
Precip. -- in
6:55 AM 7:33 PM
Waxing Gibbous, 78% visible
Pressure 30.05 in
Visibility 10.0 miles
Clouds Clear
Dew Point 25 °F
Humidity 82%
Rainfall 0.00 in
Snow Depth Not available.
UV 0 out of 12
Pollen 7.30 out of 12
Air Quality Not available.
Flu Activity Not available.
METAR KALO 300854Z 00000KT 10SM CLR M01/M04 A3003 RMK AO2 SLP174 T10111039 57003 $

More Conditions Fewer Conditions

Pressure 30.05 in
Visibility 10.0 miles
Clouds Clear
Dew Point 25 °F
Humidity 82%
Rainfall 0.00 in
Snow Depth Not available.
UV 0 out of 12
Pollen 7.30 out of 12
Air Quality Not available.
Flu Activity Not available.
METAR KALO 300854Z 00000KT 10SM CLR M01/M04 A3003 RMK AO2 SLP174 T10111039 57003 $

More Conditions Fewer Conditions

10-Day Weather Forecast

Almanac

Astronomy

Mar. 30, 2015 Rise Set
Actual Time
Civil Twilight
Nautical Twilight
Astronomical Twilight
Moon
Length of Visible Light
Length of Day
Tomorrow will be .
, % of the Moon is Illuminated

Today's Extremes

State Highs State Lows

Community

WunderPhotos

Upload Photos

1,809,452 photos uploaded!

WunderBlogs® & News

Nearby

Air Quality

  Air Quality AQ Index Pollutant
Not available.

Snow Depth

Station Depth Elevation

Earthquake Activity

City Distance Mag. Time & Date
Minimum magnitude displayed is 2.5.

Coastal Water Temperatures

Place Temperature

Stations

Nearby Weather Stations

Station Location Temp. Windchill Dew Point Humidity Wind Precip. Elev Updated Type